Terminal Aerodrome Forecast
Issued by NWS Grand Forks, ND

Home | Current Version | Previous Version | Text Only | Print | Product List | Glossary On
Versions: 1 2 3 4 5 6 7 8 9 10 11 12 13 14 15 16 17 18 19 20 21 22
135
FTUS43 KFGF 281416 AAC
TAFGFK
TAF AMD
KGFK 281416Z 2814/2912 30012KT P6SM VCSH OVC060
      TEMPO 2814/2818 P6SM -SHRA BKN025
     FM281800 32019G27KT P6SM BKN045
      TEMPO 2818/2821 P6SM -SHRA OVC025
     FM282100 32021G29KT P6SM VCSH BKN045
     FM290100 34017KT P6SM BKN045
     FM290300 33013KT P6SM OVC030
     FM290600 33016G24KT P6SM OVC015=

USA.gov is the U.S. government's official web portal to all federal, state and local government web resources and services.